Time;durP1;ratioP1;P1;durP2;ratioP2;P2;SDS_P1;SDS_P2;PMS_P1;PMS_P2;Temp;Humidity;BMP_temperature;BMP_pressure;BME280_temperature;BME280_humidity;BME280_pressure;Samples;Min_cycle;Max_cycle;Signal;HPM_P1;HPM_P2
2021/11/13 00:02:16;;;;;;;73.83;37.42;;;;;;;-1.71;90.78;98205.94;1678991;85;21052;-77
2021/11/13 00:04:44;;;;;;;72.55;35.75;;;;;;;-1.77;90.83;98217.50;1654355;86;21006;-77
2021/11/13 00:07:11;;;;;;;62.10;33.80;;;;;;;-1.76;90.60;98209.74;1713528;83;21079;-77
2021/11/13 00:09:38;;;;;;;71.57;35.78;;;;;;;-1.75;90.54;98203.70;1713413;84;20997;-77
2021/11/13 00:12:06;;;;;;;65.40;34.58;;;;;;;-1.76;90.58;98203.25;1683478;85;20975;-77
2021/11/13 00:14:33;;;;;;;73.10;36.25;;;;;;;-1.76;90.39;98211.05;1686152;84;21432;-77
2021/11/13 00:17:00;;;;;;;73.20;34.88;;;;;;;-1.80;90.62;98218.72;1717136;83;20977;-77
2021/11/13 00:19:30;;;;;;;77.50;37.58;;;;;;;-1.87;89.93;98215.13;1718628;83;21078;-77
2021/11/13 00:21:57;;;;;;;71.00;35.00;;;;;;;-1.93;90.13;98219.73;1715975;83;20973;-77
2021/11/13 00:24:25;;;;;;;67.97;34.38;;;;;;;-1.97;90.06;98222.20;1713195;83;21009;-76
2021/11/13 00:26:52;;;;;;;72.42;36.38;;;;;;;-2.05;89.85;98213.83;1713559;84;21064;-77
2021/11/13 00:29:19;;;;;;;64.53;34.63;;;;;;;-2.08;89.85;98213.73;1714039;83;21013;-77
2021/11/13 00:31:45;;;;;;;70.62;35.03;;;;;;;-2.17;90.20;98217.00;1719703;82;21009;-77
2021/11/13 00:34:13;;;;;;;74.65;35.95;;;;;;;-2.18;90.24;98211.35;1719295;83;20991;-77
2021/11/13 00:36:40;;;;;;;67.55;34.23;;;;;;;-2.19;90.40;98210.90;1719356;83;21367;-77
2021/11/13 00:39:06;;;;;;;86.42;42.03;;;;;;;-2.19;90.57;98211.31;1719494;83;21029;-77
2021/11/13 00:41:33;;;;;;;73.65;38.63;;;;;;;-2.19;90.48;98218.69;1716123;82;20989;-77
2021/11/13 00:44:00;;;;;;;74.07;40.80;;;;;;;-2.19;90.45;98215.20;1718488;83;20994;-77
2021/11/13 00:46:29;;;;;;;72.50;38.60;;;;;;;-2.20;90.19;98206.96;1717853;83;21463;-77
2021/11/13 00:48:56;;;;;;;71.15;40.08;;;;;;;-2.21;90.32;98208.67;1719470;82;21486;-77
2021/11/13 00:51:24;;;;;;;71.60;38.35;;;;;;;-2.21;90.22;98207.37;1719118;82;21037;-77
2021/11/13 00:53:50;;;;;;;77.87;39.75;;;;;;;-2.25;90.04;98204.23;1713498;84;22089;-77
2021/11/13 00:56:17;;;;;;;77.58;41.33;;;;;;;-2.25;90.01;98204.23;1713620;83;20997;-77
2021/11/13 00:58:44;;;;;;;78.60;41.23;;;;;;;-2.27;90.05;98195.13;1713575;83;21366;-77
2021/11/13 01:01:12;;;;;;;83.58;42.58;;;;;;;-2.30;89.87;98198.05;1715706;83;21394;-77
2021/11/13 01:03:39;;;;;;;79.12;42.38;;;;;;;-2.31;89.73;98198.89;1728141;83;21370;-77
2021/11/13 01:06:08;;;;;;;82.78;41.58;;;;;;;-2.34;89.95;98195.80;1731850;82;21060;-77
2021/11/13 01:08:37;;;;;;;77.05;42.38;;;;;;;-2.33;89.66;98194.95;1709544;83;21407;-77
2021/11/13 01:11:04;;;;;;;78.65;41.45;;;;;;;-2.37;90.00;98196.16;1730936;83;21407;-77
2021/11/13 01:13:33;;;;;;;77.72;38.98;;;;;;;-2.37;89.90;98185.33;1727370;82;21441;-77
2021/11/13 01:16:01;;;;;;;76.62;38.63;;;;;;;-2.35;89.93;98189.27;1726825;83;21418;-77
2021/11/13 01:18:28;;;;;;;70.95;39.00;;;;;;;-2.37;89.88;98188.36;1727026;83;21052;-77
2021/11/13 01:20:55;;;;;;;72.62;38.60;;;;;;;-2.39;89.68;98180.13;1727068;83;21414;-77
2021/11/13 01:23:23;;;;;;;75.08;36.88;;;;;;;-2.39;89.67;98184.02;1730951;83;21036;-77
2021/11/13 01:25:51;;;;;;;76.47;37.55;;;;;;;-2.43;89.79;98174.80;1732435;83;21455;-77
2021/11/13 01:28:19;;;;;;;70.35;37.33;;;;;;;-2.42;89.61;98174.84;1732463;83;21390;-77
2021/11/13 01:30:45;;;;;;;74.05;38.78;;;;;;;-2.43;89.57;98178.70;1731482;82;21009;-77
2021/11/13 01:33:13;;;;;;;72.58;39.25;;;;;;;-2.44;89.56;98179.13;1732047;83;20997;-77
2021/11/13 01:35:39;;;;;;;71.07;36.17;;;;;;;-2.45;89.40;98173.45;1727484;82;21441;-77
2021/11/13 01:38:06;;;;;;;69.53;37.78;;;;;;;-2.48;89.56;98170.80;1726936;83;21485;-77
2021/11/13 01:40:35;;;;;;;72.97;36.45;;;;;;;-2.46;89.45;98172.15;1727057;83;20984;-77
2021/11/13 01:43:03;;;;;;;75.47;38.48;;;;;;;-2.48;89.33;98172.52;1726656;83;20993;-77
2021/11/13 01:45:30;;;;;;;80.62;36.85;;;;;;;-2.50;89.34;98173.77;1731758;83;20981;-77
2021/11/13 01:47:57;;;;;;;66.85;36.80;;;;;;;-2.49;89.29;98172.92;1727661;83;21049;-77
2021/11/13 01:50:37;;;;;;;75.70;38.20;;;;;;;-2.48;89.14;98169.91;1727061;83;21064;-77
2021/11/13 01:53:07;;;;;;;77.22;37.65;;;;;;;-2.49;89.22;98164.27;1730611;83;20981;-77
2021/11/13 01:55:37;;;;;;;69.65;37.73;;;;;;;-2.45;89.43;98168.70;1715645;83;21013;-77
2021/11/13 01:58:06;;;;;;;68.60;36.88;;;;;;;-2.44;89.22;98170.45;1730897;82;21009;-77
2021/11/13 02:00:37;;;;;;;69.77;35.98;;;;;;;-2.45;89.02;98164.81;1730464;83;21061;-77
2021/11/13 02:03:07;;;;;;;72.08;37.25;;;;;;;-2.45;89.33;98164.37;1720288;82;20978;-77
2021/11/13 02:05:34;;;;;;;69.53;35.13;;;;;;;-2.44;89.13;98162.67;1718100;83;21424;-77
2021/11/13 02:08:02;;;;;;;72.10;35.20;;;;;;;-2.46;88.89;98173.01;1718132;83;21049;-77
2021/11/13 02:10:28;;;;;;;63.45;33.55;;;;;;;-2.52;88.92;98165.93;1717037;82;21516;-77
2021/11/13 02:12:57;;;;;;;74.37;36.53;;;;;;;-2.52;89.13;98169.83;1713705;83;21029;-77
2021/11/13 02:15:25;;;;;;;70.25;35.45;;;;;;;-2.48;89.09;98164.72;1713660;84;21012;-77
2021/11/13 02:17:55;;;;;;;74.20;37.23;;;;;;;-2.49;88.91;98168.16;1713609;84;21145;-77
2021/11/13 02:20:34;;;;;;;71.15;36.28;;;;;;;-2.53;88.70;98168.08;1715628;83;21024;-78
2021/11/13 02:23:12;;;;;;;65.28;32.33;;;;;;;-2.52;88.95;98161.19;1654506;86;21090;-77
2021/11/13 02:25:42;;;;;;;69.35;35.08;;;;;;;-2.54;88.69;98168.92;1717923;83;20950;-77
2021/11/13 02:28:14;;;;;;;61.25;29.65;;;;;;;-2.54;88.77;98166.73;1719592;83;21453;-77
2021/11/13 02:30:42;;;;;;;65.32;32.90;;;;;;;-2.54;88.86;98162.84;1719727;83;21054;-77
2021/11/13 02:33:11;;;;;;;67.62;31.17;;;;;;;-2.53;88.47;98164.63;1719456;83;21001;-77
2021/11/13 02:35:39;;;;;;;66.50;30.23;;;;;;;-2.61;88.46;98162.23;1714613;83;20997;-77
2021/11/13 02:38:17;;;;;;;61.02;30.37;;;;;;;-2.65;88.53;98165.19;1713687;84;21040;-77
2021/11/13 02:40:50;;;;;;;63.75;29.70;;;;;;;-2.62;88.80;98160.49;1713229;83;21029;-77
2021/11/13 02:43:17;;;;;;;66.30;32.78;;;;;;;-2.63;88.63;98163.94;1713691;84;21061;-77
2021/11/13 02:45:45;;;;;;;68.90;33.28;;;;;;;-2.61;88.72;98152.75;1716035;83;21061;-77
2021/11/13 02:48:15;;;;;;;60.15;29.82;;;;;;;-2.59;88.73;98152.36;1716686;83;21032;-77
2021/11/13 02:50:43;;;;;;;67.62;30.52;;;;;;;-2.61;88.66;98157.05;1719361;83;21394;-77
2021/11/13 02:53:20;;;;;;;61.00;31.45;;;;;;;-2.59;88.68;98151.47;1719536;83;21002;-77
2021/11/13 02:55:49;;;;;;;68.22;32.13;;;;;;;-2.61;88.42;98154.05;1719634;83;20958;-78
2021/11/13 02:58:21;;;;;;;65.30;32.17;;;;;;;-2.65;88.33;98157.41;1717243;82;20985;-77
2021/11/13 03:00:52;;;;;;;60.63;32.48;;;;;;;-2.69;88.26;98159.02;1712907;84;21040;-77
2021/11/13 03:03:20;;;;;;;65.22;32.10;;;;;;;-2.73;88.35;98158.91;1713477;83;21056;-77
2021/11/13 03:05:55;;;;;;;67.25;33.92;;;;;;;-2.75;88.33;98157.56;1713694;83;21005;-78
2021/11/13 03:08:26;;;;;;;67.22;31.33;;;;;;;-2.72;88.56;98148.98;1719330;82;21084;-78
2021/11/13 03:10:56;;;;;;;61.28;32.60;;;;;;;-2.72;88.53;98150.28;1718822;83;20950;-78
2021/11/13 03:13:25;;;;;;;64.05;32.80;;;;;;;-2.72;88.35;98153.77;1719514;83;21009;-78
2021/11/13 03:15:54;;;;;;;64.27;31.90;;;;;;;-2.76;88.37;98152.33;1718427;83;21215;-78
2021/11/13 03:18:20;;;;;;;64.22;31.75;;;;;;;-2.74;88.50;98155.42;1678886;85;21724;-78
2021/11/13 03:20:47;;;;;;;65.55;31.90;;;;;;;-2.77;88.33;98155.36;1654615;87;21059;-78
2021/11/13 03:23:15;;;;;;;61.88;32.93;;;;;;;-2.76;88.52;98161.41;1714242;82;20954;-78
2021/11/13 03:26:01;;;;;;;63.65;32.78;;;;;;;-2.76;88.48;98151.92;1719259;83;21768;-78
2021/11/13 03:28:30;;;;;;;63.45;34.05;;;;;;;-2.77;88.53;98155.77;1714018;82;21012;-77
2021/11/13 03:31:02;;;;;;;66.72;34.10;;;;;;;-2.74;88.69;98155.86;1713648;84;21458;-77
2021/11/13 03:33:25;;;;;;;64.25;33.23;;;;;;;-2.72;88.67;98145.98;1712986;83;21073;-77
2021/11/13 03:35:52;;;;;;;63.42;33.40;;;;;;;-2.71;88.71;98148.14;1716645;83;21585;-77
2021/11/13 03:38:20;;;;;;;59.05;32.73;;;;;;;-2.71;88.39;98148.14;1719094;82;21005;-77
2021/11/13 03:40:49;;;;;;;68.30;34.65;;;;;;;-2.72;88.45;98144.69;1719568;82;21455;-76
2021/11/13 03:43:18;;;;;;;69.72;34.58;;;;;;;-2.72;88.37;98145.09;1719486;83;20993;-77
2021/11/13 03:45:48;;;;;;;71.92;34.38;;;;;;;-2.74;88.16;98141.59;1719514;83;21013;-77
2021/11/13 03:48:16;;;;;;;67.62;33.88;;;;;;;-2.81;88.23;98142.73;1718996;83;21066;-77
2021/11/13 03:50:43;;;;;;;71.45;34.75;;;;;;;-2.84;88.26;98144.34;1713483;84;21016;-77
2021/11/13 03:53:10;;;;;;;69.32;34.08;;;;;;;-2.81;88.51;98154.81;1713721;84;20989;-77
2021/11/13 03:55:37;;;;;;;62.50;31.33;;;;;;;-2.80;88.66;98157.45;1713726;84;21546;-76
2021/11/13 03:58:05;;;;;;;55.63;30.23;;;;;;;-2.75;88.51;98160.16;1713568;84;21037;-76
2021/11/13 04:00:32;;;;;;;63.40;30.60;;;;;;;-2.73;88.64;98152.02;1715707;83;21387;-77
2021/11/13 04:02:59;;;;;;;58.95;29.10;;;;;;;-2.74;88.42;98146.78;1724509;83;21092;-77
2021/11/13 04:05:28;;;;;;;57.13;29.40;;;;;;;-2.76;88.17;98151.92;1732171;82;21005;-77
2021/11/13 04:07:56;;;;;;;55.85;26.70;;;;;;;-2.81;88.25;98155.70;1732419;82;21075;-77
2021/11/13 04:10:24;;;;;;;55.17;27.75;;;;;;;-2.82;88.28;98155.66;1732292;83;21084;-77
2021/11/13 04:12:51;;;;;;;56.08;27.05;;;;;;;-2.82;88.31;98155.22;1731539;83;21070;-77
2021/11/13 04:15:20;;;;;;;56.50;28.57;;;;;;;-2.82;88.27;98155.22;1726892;83;21000;-77
2021/11/13 04:17:49;;;;;;;57.95;30.15;;;;;;;-2.81;88.27;98153.11;1726896;83;20973;-77
2021/11/13 04:20:17;;;;;;;62.13;30.48;;;;;;;-2.82;88.18;98155.22;1726918;83;21040;-77
2021/11/13 04:22:46;;;;;;;60.75;31.02;;;;;;;-2.83;88.31;98152.17;1726932;83;21399;-77
2021/11/13 04:25:14;;;;;;;61.45;31.25;;;;;;;-2.83;88.09;98150.02;1728625;81;21429;-77
2021/11/13 04:27:43;;;;;;;70.65;34.23;;;;;;;-2.88;88.11;98156.36;1731452;83;21044;-77
2021/11/13 04:30:13;;;;;;;68.42;34.92;;;;;;;-2.86;88.24;98146.89;1731652;82;21061;-77
2021/11/13 04:32:47;;;;;;;65.60;33.48;;;;;;;-2.86;88.34;98148.63;1732158;83;21000;-77
2021/11/13 04:35:21;;;;;;;67.80;33.35;;;;;;;-2.92;88.23;98154.12;1727038;83;21008;-77
2021/11/13 04:37:55;;;;;;;65.32;34.55;;;;;;;-2.91;88.26;98149.79;1727034;82;21052;-77
2021/11/13 04:40:24;;;;;;;;;;;;;;;-2.93;88.29;98157.55;1729281;83;21497;-77
2021/11/13 04:42:51;;;;;;;68.62;36.35;;;;;;;-2.91;88.35;98151.08;1727388;83;20163;-76
2021/11/13 04:45:18;;;;;;;71.70;34.23;;;;;;;-2.91;88.14;98148.49;1715838;83;21036;-76
2021/11/13 04:47:45;;;;;;;73.30;36.30;;;;;;;-2.97;88.14;98147.93;1732531;82;21011;-76
2021/11/13 04:50:16;;;;;;;71.22;35.98;;;;;;;-3.01;88.19;98142.60;1731709;82;21017;-77
2021/11/13 04:52:46;;;;;;;68.02;36.23;;;;;;;-3.01;88.23;98140.90;1732224;83;20988;-77
2021/11/13 04:55:14;;;;;;;71.62;36.50;;;;;;;-3.00;88.61;98142.65;1731794;83;21411;-77
2021/11/13 04:57:42;;;;;;;68.35;34.35;;;;;;;-2.97;88.38;98136.67;1731245;83;20980;-77
2021/11/13 05:00:13;;;;;;;73.52;35.15;;;;;;;-2.99;88.33;98137.91;1732514;83;21088;-77
2021/11/13 05:02:40;;;;;;;79.75;37.40;;;;;;;-2.97;88.26;98134.08;1728902;83;21018;-77
2021/11/13 05:05:08;;;;;;;71.60;36.68;;;;;;;-2.97;88.39;98131.48;1719875;83;21020;-77
2021/11/13 05:07:35;;;;;;;77.67;37.85;;;;;;;-3.00;88.33;98130.98;1718033;83;21020;-77
2021/11/13 05:10:04;;;;;;;75.03;37.80;;;;;;;-2.98;88.22;98131.03;1713555;84;21005;-77
2021/11/13 05:12:33;;;;;;;61.48;30.05;;;;;;;-2.98;88.47;98130.62;1713775;83;21077;-77
2021/11/13 05:15:02;;;;;;;58.80;27.27;;;;;;;-2.94;88.57;98131.13;1714982;82;20990;-77
2021/11/13 05:17:30;;;;;;;47.38;24.45;;;;;;;-2.93;88.07;98147.18;1717942;83;21009;-77
2021/11/13 05:19:57;;;;;;;47.35;23.45;;;;;;;-2.95;88.58;98144.09;1715961;83;21424;-77
2021/11/13 05:22:25;;;;;;;40.40;20.62;;;;;;;-2.92;88.41;98146.34;1718030;82;21655;-77
2021/11/13 05:24:52;;;;;;;39.60;18.80;;;;;;;-2.90;88.46;98145.09;1719636;83;21001;-77
2021/11/13 05:27:19;;;;;;;39.88;18.85;;;;;;;-2.89;88.28;98147.24;1719342;83;21040;-77
2021/11/13 05:29:46;;;;;;;37.67;17.77;;;;;;;-2.87;88.21;98154.66;1718002;82;21143;-77
2021/11/13 05:32:12;;;;;;;29.95;17.07;;;;;;;-2.87;88.17;98156.82;1717090;83;20998;-77
2021/11/13 05:34:39;;;;;;;37.60;18.27;;;;;;;-2.89;88.12;98158.50;1718126;82;20998;-77
2021/11/13 05:37:06;;;;;;;38.92;19.27;;;;;;;-2.85;88.18;98161.64;1718141;83;21122;-77
2021/11/13 05:39:38;;;;;;;42.90;21.75;;;;;;;-2.84;88.03;98163.80;1714650;82;21023;-77
2021/11/13 05:42:05;;;;;;;55.20;25.12;;;;;;;-2.86;87.82;98163.75;1700013;83;21005;-77
2021/11/13 05:44:34;;;;;;;58.02;28.57;;;;;;;-2.86;87.99;98163.75;1719412;83;20998;-77
2021/11/13 05:47:01;;;;;;;62.23;30.00;;;;;;;-2.86;87.87;98165.49;1719669;83;21103;-77
2021/11/13 05:49:28;;;;;;;65.10;32.58;;;;;;;-2.82;87.91;98175.12;1716740;83;20985;-77
2021/11/13 05:51:56;;;;;;;77.62;33.45;;;;;;;-2.84;87.94;98167.69;1719727;83;21029;-78
2021/11/13 05:54:24;;;;;;;70.60;33.28;;;;;;;-2.83;88.00;98170.34;1719665;83;21430;-78
2021/11/13 05:56:51;;;;;;;64.10;30.43;;;;;;;-2.81;87.95;98175.16;1719549;83;21039;-78
2021/11/13 05:59:18;;;;;;;70.47;31.77;;;;;;;-2.80;88.09;98173.42;1718416;82;21450;-78
2021/11/13 06:01:44;;;;;;;76.67;33.30;;;;;;;-2.76;88.05;98174.38;1691119;85;21025;-77
2021/11/13 06:04:11;;;;;;;66.75;31.40;;;;;;;-2.74;88.06;98175.31;1699205;84;21071;-78
2021/11/13 06:06:38;;;;;;;74.70;36.48;;;;;;;-2.71;88.24;98178.86;1729441;82;21314;-78
2021/11/13 06:09:05;;;;;;;81.12;36.98;;;;;;;-2.66;88.48;98184.19;1732171;83;21024;-78
2021/11/13 06:11:32;;;;;;;73.67;35.90;;;;;;;-2.65;88.12;98179.02;1731998;83;21020;-78
2021/11/13 06:13:58;;;;;;;78.12;38.00;;;;;;;-2.61;88.32;98173.52;1727164;83;21036;-78
2021/11/13 06:16:25;;;;;;;88.80;41.10;;;;;;;-2.49;88.48;98186.33;1728556;83;21036;-78
2021/11/13 06:18:51;;;;;;;86.35;39.45;;;;;;;-2.44;88.37;98181.73;1730962;82;21482;-78
2021/11/13 06:21:19;;;;;;;83.45;39.40;;;;;;;-2.36;88.31;98182.33;1730948;83;20977;-78
2021/11/13 06:23:46;;;;;;;93.97;40.33;;;;;;;-2.31;88.38;98189.81;1730659;82;21028;-78
2021/11/13 06:26:15;;;;;;;93.62;44.33;;;;;;;-2.24;88.91;98191.73;1726457;83;21023;-78
2021/11/13 06:28:42;;;;;;;96.78;41.23;;;;;;;-2.13;88.42;98191.97;1728021;83;21048;-78
2021/11/13 06:31:08;;;;;;;104.20;44.15;;;;;;;-2.07;88.52;98198.64;1731690;82;21077;-78
2021/11/13 06:33:37;;;;;;;101.33;41.70;;;;;;;-2.02;88.53;98198.73;1731615;83;20977;-78
2021/11/13 06:36:05;;;;;;;98.42;43.30;;;;;;;-1.96;88.51;98195.41;1730907;83;21071;-78
2021/11/13 06:38:33;;;;;;;102.30;42.65;;;;;;;-1.90;88.72;98195.55;1730292;83;20970;-78
2021/11/13 06:41:00;;;;;;;104.15;43.48;;;;;;;-1.82;88.66;98191.42;1730887;82;20973;-78
2021/11/13 06:43:27;;;;;;;112.37;45.98;;;;;;;-1.78;88.43;98193.22;1732364;82;21036;-78
2021/11/13 06:45:53;;;;;;;98.97;43.73;;;;;;;-1.74;88.66;98187.26;1727482;83;21004;-78
2021/11/13 06:48:21;;;;;;;105.72;45.98;;;;;;;-1.65;88.62;98193.52;1727978;82;21069;-78
2021/11/13 06:50:48;;;;;;;104.27;44.30;;;;;;;-1.61;88.60;98190.14;1730954;83;21013;-78
2021/11/13 06:53:15;;;;;;;108.47;46.95;;;;;;;-1.58;88.40;98190.20;1730797;82;20981;-78
2021/11/13 06:55:41;;;;;;;108.83;44.33;;;;;;;-1.54;88.38;98181.63;1730492;83;21113;-78
2021/11/13 06:58:08;;;;;;;111.12;46.28;;;;;;;-1.49;88.77;98182.60;1732096;83;21067;-78
2021/11/13 07:00:34;;;;;;;108.10;45.40;;;;;;;-1.44;88.46;98177.92;1732373;83;20989;-78
2021/11/13 07:03:02;;;;;;;106.07;45.63;;;;;;;-1.40;88.33;98175.85;1731597;82;21557;-78
2021/11/13 07:05:29;;;;;;;97.08;43.20;;;;;;;-1.36;88.47;98178.98;1731784;83;21084;-78
2021/11/13 07:07:57;;;;;;;113.32;45.40;;;;;;;-1.31;88.51;98168.66;1728285;82;20997;-78
2021/11/13 07:10:27;;;;;;;107.60;45.08;;;;;;;-1.26;88.27;98171.82;1727034;83;21072;-78
2021/11/13 07:12:56;;;;;;;110.08;43.40;;;;;;;-1.26;88.17;98173.53;1726895;83;20995;-78
2021/11/13 07:15:24;;;;;;;105.40;44.67;;;;;;;-1.24;88.15;98179.22;1728461;83;21367;-77
2021/11/13 07:17:51;;;;;;;106.78;45.67;;;;;;;-1.19;88.21;98176.73;1728228;82;21023;-77
2021/11/13 07:20:19;;;;;;;108.05;46.28;;;;;;;-1.14;88.53;98179.41;1728586;83;21048;-78
2021/11/13 07:22:46;;;;;;;111.35;47.38;;;;;;;-1.08;88.23;98179.11;1729438;83;20985;-78
2021/11/13 07:25:14;;;;;;;107.55;47.05;;;;;;;-1.03;88.15;98180.94;1730903;82;21462;-78
2021/11/13 07:27:45;;;;;;;110.78;46.28;;;;;;;-0.99;88.18;98181.45;1731917;82;21538;-78
2021/11/13 07:30:39;;;;;;;102.40;45.80;;;;;;;-0.93;88.22;98182.86;1727323;83;21023;-78
2021/11/13 07:32:56;;;;;;;105.10;44.35;;;;;;;-0.89;88.07;98175.58;1720622;83;21080;-78
2021/11/13 07:35:25;;;;;;;108.80;44.60;;;;;;;-0.82;88.11;98177.43;1730437;83;20966;-78
2021/11/13 07:37:51;;;;;;;116.65;44.25;;;;;;;-0.73;87.74;98178.46;1730955;82;21028;-78
2021/11/13 07:40:17;;;;;;;112.10;46.88;;;;;;;-0.74;87.67;98188.02;1730824;83;21486;-78
2021/11/13 07:42:44;;;;;;;100.90;44.55;;;;;;;-0.68;87.82;98190.73;1731172;83;20973;-78
2021/11/13 07:45:10;;;;;;;109.78;48.13;;;;;;;-0.64;87.50;98182.54;1731409;82;21017;-78
2021/11/13 07:47:41;;;;;;;111.57;46.15;;;;;;;-0.62;87.41;98198.19;1732045;83;20965;-78
2021/11/13 07:50:06;;;;;;;108.95;46.85;;;;;;;-0.61;87.35;98190.42;1728068;82;21016;-78
2021/11/13 07:52:33;;;;;;;101.53;45.55;;;;;;;-0.52;87.33;98185.80;1730448;83;21012;-78
2021/11/13 07:54:59;;;;;;;117.13;47.38;;;;;;;-0.50;87.28;98188.43;1730731;83;21061;-78
2021/11/13 07:57:26;;;;;;;101.85;43.75;;;;;;;-0.46;87.33;98185.03;1731520;82;21096;-78
2021/11/13 07:59:52;;;;;;;100.30;45.17;;;;;;;-0.36;87.24;98192.16;1731382;82;20993;-78
2021/11/13 08:02:19;;;;;;;115.80;44.67;;;;;;;-0.29;87.10;98186.63;1730795;82;21117;-78
2021/11/13 08:04:45;;;;;;;102.85;43.98;;;;;;;-0.23;86.62;98181.93;1730888;83;21025;-78
2021/11/13 08:07:12;;;;;;;106.60;42.93;;;;;;;-0.15;87.10;98179.03;1730872;82;21037;-78
2021/11/13 08:09:38;;;;;;;100.20;42.50;;;;;;;-0.04;86.85;98176.61;1730801;81;21016;-78
2021/11/13 08:12:05;;;;;;;105.10;43.10;;;;;;;0.05;87.02;98170.24;1730373;82;21477;-78
2021/11/13 08:14:33;;;;;;;98.87;46.25;;;;;;;0.15;86.81;98171.66;1732288;83;21008;-78
2021/11/13 08:16:59;;;;;;;118.70;47.17;;;;;;;0.20;86.54;98168.28;1730800;82;21085;-79
2021/11/13 08:19:28;;;;;;;111.25;44.95;;;;;;;0.24;86.35;98171.80;1731523;83;21040;-79
2021/11/13 08:21:55;;;;;;;104.53;45.52;;;;;;;0.32;86.70;98174.52;1732498;83;21021;-78
2021/11/13 08:24:21;;;;;;;103.70;44.75;;;;;;;0.39;86.46;98173.35;1728632;83;21039;-79
2021/11/13 08:26:49;;;;;;;106.32;46.58;;;;;;;0.37;86.00;98169.83;1727080;83;21497;-78
2021/11/13 08:29:16;;;;;;;103.07;46.60;;;;;;;0.38;85.76;98171.57;1727193;83;21019;-79
2021/11/13 08:31:42;;;;;;;106.87;46.73;;;;;;;0.36;85.72;98172.41;1730842;83;21017;-79
2021/11/13 08:34:09;;;;;;;110.48;48.17;;;;;;;0.36;85.81;98168.49;1731132;83;21037;-78
2021/11/13 08:36:36;;;;;;;97.92;45.05;;;;;;;0.43;86.11;98172.06;1731659;82;21047;-78
2021/11/13 08:39:06;;;;;;;106.87;45.88;;;;;;;0.49;86.38;98170.84;1731896;83;20973;-78
2021/11/13 08:41:33;;;;;;;96.72;44.77;;;;;;;0.57;86.26;98171.83;1731991;82;20985;-78
2021/11/13 08:44:02;;;;;;;93.25;42.13;;;;;;;0.65;86.05;98173.23;1732596;83;20995;-79
2021/11/13 08:46:29;;;;;;;95.35;40.83;;;;;;;0.70;85.80;98165.48;1732629;82;21508;-79
2021/11/13 08:48:57;;;;;;;98.72;42.10;;;;;;;0.76;85.96;98168.16;1702671;83;21129;-78
2021/11/13 08:51:24;;;;;;;81.08;38.45;;;;;;;0.87;86.29;98165.25;1728748;83;21072;-78
2021/11/13 08:53:54;;;;;;;69.07;34.48;;;;;;;0.96;85.87;98171.03;1731116;82;21378;-78
2021/11/13 08:56:26;;;;;;;59.10;30.97;;;;;;;1.02;85.30;98171.09;1732007;82;21072;-78
2021/11/13 08:58:55;;;;;;;56.88;31.48;;;;;;;1.12;85.70;98170.75;1732187;83;21036;-79
2021/11/13 09:01:26;;;;;;;54.48;30.45;;;;;;;1.19;85.15;98163.86;1730768;83;21067;-78
2021/11/13 09:03:54;;;;;;;60.50;31.27;;;;;;;1.23;83.85;98161.73;1728611;83;21085;-78
2021/11/13 09:06:25;;;;;;;57.33;31.48;;;;;;;1.33;85.02;98151.39;1718749;82;21032;-76
2021/11/13 09:08:52;;;;;;;54.65;30.12;;;;;;;1.42;84.79;98154.09;1719501;83;21113;-76
2021/11/13 09:11:23;;;;;;;54.95;30.97;;;;;;;1.55;84.42;98143.33;1717756;82;21013;-76
2021/11/13 09:13:51;;;;;;;52.78;30.20;;;;;;;1.65;84.74;98145.16;1713723;83;21410;-76
2021/11/13 09:16:19;;;;;;;57.55;29.80;;;;;;;1.77;84.82;98135.24;1713858;83;21422;-76
2021/11/13 09:18:46;;;;;;;54.50;30.15;;;;;;;1.91;84.53;98134.48;1713615;83;21456;-76
2021/11/13 09:21:13;;;;;;;56.77;30.12;;;;;;;2.04;83.35;98132.83;1713914;84;20969;-77
2021/11/13 09:23:42;;;;;;;57.45;30.45;;;;;;;2.13;80.38;98130.28;1716647;83;21091;-76
2021/11/13 09:26:10;;;;;;;53.90;30.52;;;;;;;2.26;81.84;98139.48;1717409;83;21438;-76
2021/11/13 09:28:39;;;;;;;56.50;29.72;;;;;;;2.39;81.90;98137.39;1719493;82;21036;-76
2021/11/13 09:31:06;;;;;;;53.78;26.37;;;;;;;2.54;82.29;98127.88;1719749;82;21029;-76
2021/11/13 09:33:34;;;;;;;45.05;26.65;;;;;;;2.68;80.36;98126.20;1719587;83;21390;-74
2021/11/13 09:36:02;;;;;;;40.52;24.72;;;;;;;2.82;81.11;98121.02;1719556;83;21448;-74
2021/11/13 09:38:33;;;;;;;44.13;25.02;;;;;;;2.97;80.46;98118.89;1719635;82;21037;-74
2021/11/13 09:41:05;;;;;;;42.95;25.95;;;;;;;3.09;80.61;98113.23;1719504;83;20998;-76
2021/11/13 09:43:33;;;;;;;47.13;23.75;;;;;;;3.23;79.09;98114.57;1719652;83;21025;-76
2021/11/13 09:46:05;;;;;;;45.28;25.85;;;;;;;3.33;75.98;98107.19;1719720;82;21037;-76
2021/11/13 09:48:32;;;;;;;38.15;23.70;;;;;;;3.41;79.25;98102.81;1691725;83;21040;-75
2021/11/13 09:51:04;;;;;;;42.23;24.15;;;;;;;3.49;76.53;98099.34;1710765;83;21149;-75
2021/11/13 09:53:31;;;;;;;47.65;26.73;;;;;;;3.56;77.62;98095.41;1702654;83;21009;-75
2021/11/13 09:55:59;;;;;;;43.23;25.52;;;;;;;3.69;78.79;98097.59;1714890;83;21064;-75
2021/11/13 09:58:30;;;;;;;42.33;24.45;;;;;;;3.82;77.84;98094.98;1713659;84;21486;-75
2021/11/13 10:01:00;;;;;;;36.40;21.97;;;;;;;3.96;77.87;98104.13;1713248;83;21112;-75
2021/11/13 10:03:28;;;;;;;40.00;24.43;;;;;;;4.08;77.65;98100.16;1712203;83;21045;-75
2021/11/13 10:06:02;;;;;;;38.65;22.75;;;;;;;4.22;76.63;98092.71;1716283;82;21048;-76
2021/11/13 10:08:32;;;;;;;35.58;22.87;;;;;;;4.31;73.54;98091.38;1715132;82;21056;-76
2021/11/13 10:11:04;;;;;;;42.45;23.07;;;;;;;4.45;74.53;98092.64;1719252;82;21016;-76
2021/11/13 10:13:36;;;;;;;40.25;23.40;;;;;;;4.58;73.61;98090.88;1709320;83;21033;-77
2021/11/13 10:16:10;;;;;;;38.90;23.70;;;;;;;4.69;72.90;98093.42;1723768;83;20953;-76
2021/11/13 10:18:42;;;;;;;39.23;21.42;;;;;;;4.74;69.88;98090.34;1731947;82;21020;-77
2021/11/13 10:21:20;;;;;;;36.70;22.45;;;;;;;4.81;71.30;98090.34;1706782;83;20978;-76
2021/11/13 10:23:59;;;;;;;37.20;22.17;;;;;;;4.92;69.94;98083.69;1725896;83;21004;-77
2021/11/13 10:26:37;;;;;;;34.15;20.62;;;;;;;5.02;68.58;98081.02;1722531;83;20973;-76
2021/11/13 10:29:24;;;;;;;35.30;21.65;;;;;;;5.28;70.11;98081.74;1719337;83;21002;-76
2021/11/13 10:31:57;;;;;;;31.93;19.80;;;;;;;5.99;67.61;98084.23;1731758;83;21077;-80
2021/11/13 10:34:31;;;;;;;32.58;20.60;;;;;;;6.63;65.03;98089.27;1711179;83;21022;-80
2021/11/13 10:37:02;;;;;;;31.60;20.85;;;;;;;7.33;67.84;98080.00;1729014;83;20984;-76
2021/11/13 10:39:36;;;;;;;26.40;19.23;;;;;;;8.06;65.51;98072.19;1721889;83;21452;-75
2021/11/13 10:42:13;;;;;;;31.77;22.35;;;;;;;9.01;58.21;98069.47;1731400;83;20969;-74
2021/11/13 10:44:59;;;;;;;30.27;21.12;;;;;;;10.00;59.51;98074.63;1732624;82;20942;-75
2021/11/13 10:47:38;;;;;;;30.77;20.40;;;;;;;10.89;62.59;98070.48;1713337;83;21039;-74
2021/11/13 10:50:21;;;;;;;27.93;21.07;;;;;;;11.68;63.38;98063.63;1712900;83;21541;-75
2021/11/13 10:53:08;;;;;;;31.27;21.97;;;;;;;12.07;51.94;98057.03;1723807;83;21000;-75
2021/11/13 10:56:08;;;;;;;29.60;22.00;;;;;;;12.56;53.23;98057.54;1729939;83;20965;-75
2021/11/13 10:59:06;;;;;;;33.30;22.13;;;;;;;13.42;50.60;98040.05;1731073;83;20974;-73
2021/11/13 11:01:46;;;;;;;29.35;20.65;;;;;;;14.50;48.77;98035.58;1650391;86;21038;-78
2021/11/13 11:04:21;;;;;;;28.23;21.23;;;;;;;15.01;50.02;98022.61;1664111;86;20979;-80
2021/11/13 11:06:56;;;;;;;27.00;20.77;;;;;;;14.78;43.60;98015.66;1664530;86;21478;-81
2021/11/13 11:09:31;;;;;;;30.17;21.02;;;;;;;14.84;45.38;98016.73;1654485;86;21006;-82
2021/11/13 11:12:12;;;;;;;29.50;21.87;;;;;;;15.59;42.01;98014.50;1662110;84;21015;-81
2021/11/13 11:14:50;;;;;;;27.15;21.60;;;;;;;15.85;38.85;98008.30;1657761;86;21003;-79
2021/11/13 11:17:24;;;;;;;27.98;21.50;;;;;;;16.68;40.73;98006.72;1660066;86;21058;-79
2021/11/13 11:19:53;;;;;;;28.17;21.55;;;;;;;16.93;38.35;98009.41;1663776;86;21491;-79
2021/11/13 11:22:27;;;;;;;30.60;22.05;;;;;;;16.96;36.90;97998.05;1663204;86;21003;-79
2021/11/13 11:25:03;;;;;;;27.93;21.62;;;;;;;17.09;40.01;97994.70;1659222;84;21011;-80
2021/11/13 11:27:37;;;;;;;30.32;22.87;;;;;;;17.80;39.46;97988.41;1659080;84;21083;-80
2021/11/13 11:30:09;;;;;;;;;;;;;;;18.20;34.19;97989.21;1664307;84;21037;-80